createdAt,value
2018-04-02T00:02:22.683Z,22.33
2018-04-02T00:04:50.138Z,23.87
2018-04-02T00:07:17.596Z,21.53
2018-04-02T00:09:45.049Z,21.87
2018-04-02T00:12:12.496Z,23.50
2018-04-02T00:14:39.950Z,22.60
2018-04-02T00:17:07.400Z,21.27
2018-04-02T00:19:34.850Z,23.30
2018-04-02T00:22:03.066Z,24.30
2018-04-02T00:24:30.574Z,21.67
2018-04-02T00:26:57.988Z,23.23
2018-04-02T00:29:25.444Z,22.87
2018-04-02T00:31:52.897Z,21.60
2018-04-02T00:34:20.359Z,22.07
2018-04-02T00:36:47.812Z,22.20
2018-04-02T00:39:15.278Z,24.97
2018-04-02T00:41:42.728Z,23.00
2018-04-02T00:44:10.957Z,23.73
2018-04-02T00:46:38.400Z,25.27
2018-04-02T00:49:06.624Z,21.87
2018-04-02T00:51:34.081Z,21.33
2018-04-02T00:54:01.544Z,24.27
2018-04-02T00:56:28.998Z,24.90
2018-04-02T00:58:56.457Z,26.10
2018-04-02T01:01:23.904Z,26.93
2018-04-02T01:03:51.363Z,29.20
2018-04-02T01:06:18.816Z,32.23
2018-04-02T01:08:46.281Z,25.77
2018-04-02T01:11:13.729Z,25.37
2018-04-02T01:13:41.188Z,29.87
2018-04-02T01:16:08.642Z,29.23
2018-04-02T01:18:36.104Z,27.50
2018-04-02T01:21:03.548Z,29.53
2018-04-02T01:23:31.017Z,26.07
2018-04-02T01:25:58.471Z,32.37
2018-04-02T01:28:25.928Z,30.00
2018-04-02T01:30:53.384Z,30.60
2018-04-02T01:33:20.840Z,33.03
2018-04-02T01:35:48.301Z,34.23
2018-04-02T01:38:15.754Z,32.70
2018-04-02T01:40:43.206Z,36.33
2018-04-02T01:43:10.661Z,32.23
2018-04-02T01:45:38.116Z,30.10
2018-04-02T01:48:05.712Z,30.93
2018-04-02T01:50:33.158Z,31.77
2018-04-02T01:53:00.615Z,31.07
2018-04-02T01:55:28.071Z,32.47
2018-04-02T01:57:55.520Z,36.47
2018-04-02T02:00:22.977Z,35.17
2018-04-02T02:02:50.427Z,34.13
2018-04-02T02:05:17.873Z,32.73
2018-04-02T02:07:45.329Z,33.10
2018-04-02T02:10:12.790Z,35.27
2018-04-02T02:12:41.002Z,33.47
2018-04-02T02:15:09.233Z,37.07
2018-04-02T02:17:36.685Z,34.50
2018-04-02T02:20:04.142Z,34.70
2018-04-02T02:22:31.604Z,31.67
2018-04-02T02:24:59.066Z,36.03
2018-04-02T02:27:26.521Z,35.63
2018-04-02T02:29:53.982Z,40.17
2018-04-02T02:32:21.438Z,35.43
2018-04-02T02:34:48.905Z,35.97
2018-04-02T02:37:16.356Z,36.70
2018-04-02T02:39:43.822Z,38.80
2018-04-02T02:42:11.273Z,39.30
2018-04-02T02:44:38.735Z,35.13
2018-04-02T02:47:06.188Z,36.03
2018-04-02T02:49:33.649Z,39.40
2018-04-02T02:52:01.102Z,37.50
2018-04-02T02:54:28.576Z,39.80
2018-04-02T02:56:56.797Z,43.77
2018-04-02T02:59:24.262Z,41.37
2018-04-02T03:01:51.719Z,43.07
2018-04-02T03:04:19.184Z,41.97
2018-04-02T03:06:46.637Z,43.03
2018-04-02T03:09:14.106Z,40.83
2018-04-02T03:11:41.558Z,44.80
2018-04-02T03:14:09.020Z,42.77
2018-04-02T03:16:36.471Z,40.63
2018-04-02T03:19:03.937Z,40.67
2018-04-02T03:21:31.383Z,42.20
2018-04-02T03:23:58.843Z,43.73
2018-04-02T03:26:26.288Z,43.37
2018-04-02T03:28:53.759Z,45.23
2018-04-02T03:31:21.210Z,43.70
2018-04-02T03:33:48.664Z,44.67
2018-04-02T03:36:16.112Z,44.80
2018-04-02T03:38:43.577Z,43.73
2018-04-02T03:41:11.102Z,47.53
2018-04-02T03:43:38.568Z,45.03
2018-04-02T03:46:06.020Z,50.60
2018-04-02T03:48:33.478Z,46.13
2018-04-02T03:51:00.922Z,48.13
2018-04-02T03:53:28.372Z,46.67
2018-04-02T03:55:55.825Z,46.03
2018-04-02T03:58:24.041Z,43.97
2018-04-02T04:00:51.485Z,44.33
2018-04-02T04:03:18.937Z,51.97
2018-04-02T04:05:46.384Z,53.93
2018-04-02T04:08:13.838Z,80.83
2018-04-02T04:10:41.295Z,86.63
2018-04-02T04:13:08.744Z,68.60
2018-04-02T04:15:36.206Z,58.90
2018-04-02T04:18:03.654Z,52.37
2018-04-02T04:20:31.101Z,56.07
2018-04-02T04:22:58.556Z,49.37
2018-04-02T04:25:26.852Z,58.07
2018-04-02T04:27:54.304Z,60.60
2018-04-02T04:30:21.756Z,58.50
2018-04-02T04:32:49.206Z,62.27
2018-04-02T04:35:17.415Z,54.60
2018-04-02T04:37:44.869Z,53.10
2018-04-02T04:40:12.324Z,54.90
2018-04-02T04:42:39.777Z,56.23
2018-04-02T04:45:07.228Z,57.27
2018-04-02T04:47:34.686Z,60.37
2018-04-02T04:50:02.136Z,78.53
2018-04-02T04:52:29.593Z,113.27
2018-04-02T04:54:57.052Z,71.57
2018-04-02T04:57:24.500Z,67.07
2018-04-02T04:59:51.963Z,79.13
2018-04-02T05:02:19.404Z,86.47
2018-04-02T05:04:46.865Z,80.47
2018-04-02T05:07:14.312Z,80.97
2018-04-02T05:09:41.885Z,86.50
2018-04-02T05:12:09.331Z,74.83
2018-04-02T05:14:36.788Z,81.17
2018-04-02T05:17:04.248Z,79.83
2018-04-02T05:19:31.703Z,67.30
2018-04-02T05:21:59.152Z,61.97
2018-04-02T05:24:27.369Z,63.83
2018-04-02T05:26:54.824Z,59.07
2018-04-02T05:29:22.267Z,59.07
2018-04-02T05:31:49.726Z,54.33
2018-04-02T05:34:17.199Z,51.40
2018-04-02T05:36:44.643Z,47.27
2018-04-02T05:39:12.109Z,46.67
2018-04-02T05:41:39.562Z,46.50
2018-04-02T05:44:07.020Z,53.73
2018-04-02T05:46:34.493Z,49.93
2018-04-02T05:49:02.177Z,50.77
2018-04-02T05:51:29.425Z,62.47
2018-04-02T05:53:56.881Z,67.47
2018-04-02T05:56:24.338Z,62.00
2018-04-02T05:58:51.790Z,53.73
2018-04-02T06:01:19.244Z,46.80
2018-04-02T06:03:46.693Z,47.53
2018-04-02T06:06:14.142Z,40.77
2018-04-02T06:08:41.600Z,40.43
2018-04-02T06:11:09.057Z,37.13
2018-04-02T06:13:36.504Z,34.63
2018-04-02T06:16:03.953Z,36.57
2018-04-02T06:18:31.404Z,36.50
2018-04-02T06:20:58.858Z,36.20
2018-04-02T06:23:26.307Z,36.33
2018-04-02T06:25:53.778Z,37.97
2018-04-02T06:28:21.229Z,38.00
2018-04-02T06:30:48.710Z,39.30
2018-04-02T06:33:16.186Z,34.50
2018-04-02T06:35:44.397Z,35.50
2018-04-02T06:38:11.956Z,34.30
2018-04-02T06:40:39.412Z,34.37
2018-04-02T06:43:06.878Z,33.57
2018-04-02T06:45:34.346Z,35.27
2018-04-02T06:48:01.791Z,35.77
2018-04-02T06:50:29.239Z,33.07
2018-04-02T06:52:56.772Z,31.50
2018-04-02T06:55:24.212Z,32.87
2018-04-02T06:57:51.660Z,31.30
2018-04-02T07:00:19.118Z,29.37
2018-04-02T07:02:46.565Z,31.90
2018-04-02T07:05:14.022Z,30.23
2018-04-02T07:07:41.474Z,31.10
2018-04-02T07:10:08.917Z,29.53
2018-04-02T07:12:36.391Z,28.30
2018-04-02T07:15:03.846Z,29.03
2018-04-02T07:17:31.292Z,28.93
2018-04-02T07:19:58.747Z,27.30
2018-04-02T07:22:26.201Z,28.30
2018-04-02T07:24:53.664Z,29.90
2018-04-02T07:27:21.113Z,27.73
2018-04-02T07:29:48.568Z,25.50
2018-04-02T07:32:16.020Z,26.10
2018-04-02T07:34:43.562Z,25.70
2018-04-02T07:37:11.015Z,24.60
2018-04-02T07:39:38.570Z,23.73
2018-04-02T07:42:06.056Z,24.97
2018-04-02T07:44:33.517Z,25.10
2018-04-02T07:47:00.972Z,22.97
2018-04-02T07:49:28.433Z,24.67
2018-04-02T07:51:55.893Z,23.53
2018-04-02T07:54:23.352Z,23.23
2018-04-02T07:56:50.806Z,22.10
2018-04-02T07:59:18.257Z,23.43
2018-04-02T08:01:45.735Z,23.20
2018-04-02T08:04:13.239Z,24.30
2018-04-02T08:06:40.643Z,23.73
2018-04-02T08:09:08.114Z,22.47
2018-04-02T08:11:36.425Z,22.63
2018-04-02T08:14:03.880Z,23.37
2018-04-02T08:16:31.385Z,23.40
2018-04-02T08:18:58.895Z,22.08
2018-04-02T08:21:26.381Z,23.10
2018-04-02T08:23:53.833Z,20.30
2018-04-02T08:26:21.289Z,20.62
2018-04-02T08:28:48.753Z,19.62
2018-04-02T08:31:16.205Z,19.50
2018-04-02T08:33:43.731Z,18.20
2018-04-02T08:36:11.186Z,20.67
2018-04-02T08:38:38.646Z,18.70
2018-04-02T08:41:06.104Z,20.12
2018-04-02T08:43:33.564Z,19.70
2018-04-02T08:46:01.025Z,18.27
2018-04-02T08:48:28.482Z,19.15
2018-04-02T08:50:55.948Z,18.83
2018-04-02T08:53:24.287Z,17.35
2018-04-02T08:55:52.508Z,17.87
2018-04-02T08:58:19.969Z,18.30
2018-04-02T09:00:47.433Z,19.25
2018-04-02T09:03:14.908Z,17.23
2018-04-02T09:05:42.377Z,17.63
2018-04-02T09:08:09.825Z,17.33
2018-04-02T09:10:37.280Z,17.03
2018-04-02T09:13:04.733Z,16.63
2018-04-02T09:15:32.198Z,15.97
2018-04-02T09:18:00.654Z,15.67
2018-04-02T09:20:29.058Z,16.43
2018-04-02T09:22:56.726Z,16.70
2018-04-02T09:25:26.162Z,16.07
2018-04-02T09:27:53.761Z,16.13
2018-04-02T09:30:21.457Z,16.17
2018-04-02T09:32:50.331Z,13.47
2018-04-02T09:35:18.758Z,12.93
2018-04-02T09:37:46.469Z,13.43
2018-04-02T09:40:14.964Z,14.07
2018-04-02T09:42:43.740Z,13.27
2018-04-02T09:45:12.392Z,12.20
2018-04-02T09:47:40.040Z,11.47
2018-04-02T09:50:07.783Z,10.30
2018-04-02T09:52:35.963Z,9.97
2018-04-02T09:55:04.691Z,11.40
2018-04-02T09:57:33.240Z,11.50
2018-04-02T10:00:00.727Z,13.50
2018-04-02T10:02:28.197Z,14.37
2018-04-02T10:04:55.727Z,13.60
2018-04-02T10:07:23.107Z,12.97
2018-04-02T10:09:50.596Z,13.53
2018-04-02T10:12:18.038Z,12.57
2018-04-02T10:14:46.256Z,12.03
2018-04-02T10:17:13.715Z,12.43
2018-04-02T10:19:41.174Z,10.50
2018-04-02T10:22:08.620Z,10.63
2018-04-02T10:24:36.076Z,11.57
2018-04-02T10:27:03.533Z,10.43
2018-04-02T10:29:30.980Z,10.67
2018-04-02T10:31:58.440Z,10.67
2018-04-02T10:34:25.893Z,10.57
2018-04-02T10:36:53.352Z,10.23
2018-04-02T10:39:20.805Z,10.47
2018-04-02T10:41:48.263Z,10.57
2018-04-02T10:44:15.716Z,11.17
2018-04-02T10:46:43.169Z,13.00
2018-04-02T10:49:10.624Z,10.63
2018-04-02T10:51:38.076Z,10.63
2018-04-02T10:54:05.528Z,9.17
2018-04-02T10:56:33.004Z,12.00
2018-04-02T10:59:00.513Z,9.33
2018-04-02T11:01:27.967Z,8.77
2018-04-02T11:03:56.113Z,9.50
2018-04-02T11:06:23.562Z,9.57
2018-04-02T11:08:51.012Z,8.93
2018-04-02T11:11:18.456Z,9.17
2018-04-02T11:13:45.954Z,8.37
2018-04-02T11:16:13.411Z,10.17
2018-04-02T11:18:40.864Z,15.57
2018-04-02T11:21:08.335Z,8.93
2018-04-02T11:23:35.789Z,8.77
2018-04-02T11:26:03.245Z,8.07
2018-04-02T11:28:30.709Z,7.90
2018-04-02T11:30:58.329Z,8.97
2018-04-02T11:33:26.035Z,7.10
2018-04-02T11:35:54.278Z,7.33
2018-04-02T11:38:21.736Z,8.63
2018-04-02T11:40:49.246Z,8.43
2018-04-02T11:43:17.418Z,8.00
2018-04-02T11:45:44.872Z,7.60
2018-04-02T11:48:12.360Z,7.90
2018-04-02T11:50:39.788Z,8.40
2018-04-02T11:53:07.240Z,8.13
2018-04-02T11:55:34.692Z,8.73
2018-04-02T11:58:02.899Z,8.63
2018-04-02T12:00:30.360Z,9.20
2018-04-02T12:02:57.804Z,7.80
2018-04-02T12:05:25.456Z,8.63
2018-04-02T12:07:52.899Z,8.23
2018-04-02T12:10:20.356Z,7.83
2018-04-02T12:12:47.803Z,8.07
2018-04-02T12:15:16.035Z,8.07
2018-04-02T12:17:43.496Z,8.70
2018-04-02T12:20:10.947Z,7.70
2018-04-02T12:22:38.403Z,7.13
2018-04-02T12:25:06.631Z,8.43
2018-04-02T12:27:34.091Z,7.70
2018-04-02T12:30:01.540Z,8.53
2018-04-02T12:32:29.834Z,9.03
2018-04-02T12:34:57.299Z,8.13
2018-04-02T12:37:24.747Z,7.83
2018-04-02T12:39:52.202Z,7.57
2018-04-02T12:42:19.648Z,7.77
2018-04-02T12:44:47.107Z,7.57
2018-04-02T12:47:14.569Z,7.73
2018-04-02T12:49:42.016Z,7.33
2018-04-02T12:52:09.468Z,7.33
2018-04-02T12:54:37.684Z,7.37
2018-04-02T12:57:05.132Z,8.03
2018-04-02T12:59:32.588Z,6.90
2018-04-02T13:02:00.044Z,6.77
2018-04-02T13:04:27.498Z,8.23
2018-04-02T13:06:54.969Z,7.40
2018-04-02T13:09:22.412Z,7.70
2018-04-02T13:11:49.876Z,7.60
2018-04-02T13:14:17.323Z,7.87
2018-04-02T13:16:44.804Z,6.67
2018-04-02T13:19:12.271Z,7.17
2018-04-02T13:21:39.717Z,8.17
2018-04-02T13:24:07.926Z,7.57
2018-04-02T13:26:36.152Z,6.33
2018-04-02T13:29:04.380Z,6.67
2018-04-02T13:31:32.698Z,6.33
2018-04-02T13:34:00.076Z,7.10
2018-04-02T13:36:27.521Z,6.60
2018-04-02T13:38:54.968Z,6.27
2018-04-02T13:41:22.416Z,8.33
2018-04-02T13:43:49.869Z,6.70
2018-04-02T13:46:17.318Z,6.90
2018-04-02T13:48:44.765Z,6.53
2018-04-02T13:51:12.212Z,6.47
2018-04-02T13:53:39.664Z,5.37
2018-04-02T13:56:07.871Z,6.10
2018-04-02T13:58:35.320Z,5.83
2018-04-02T14:01:02.780Z,5.30
2018-04-02T14:03:30.287Z,4.93
2018-04-02T14:05:57.725Z,5.47
2018-04-02T14:08:25.219Z,5.20
2018-04-02T14:10:53.485Z,4.93
2018-04-02T14:13:20.880Z,4.40
2018-04-02T14:15:48.325Z,4.17
2018-04-02T14:18:15.779Z,4.10
2018-04-02T14:20:43.222Z,4.17
2018-04-02T14:23:11.439Z,4.07
2018-04-02T14:25:39.652Z,5.10
2018-04-02T14:28:07.874Z,4.97
2018-04-02T14:30:35.316Z,6.17
2018-04-02T14:33:02.772Z,4.00
2018-04-02T14:35:30.220Z,4.43
2018-04-02T14:37:57.668Z,5.20
2018-04-02T14:40:25.890Z,4.87
2018-04-02T14:42:54.109Z,3.67
2018-04-02T14:45:22.331Z,3.50
2018-04-02T14:47:49.781Z,3.67
2018-04-02T14:50:17.253Z,4.07
2018-04-02T14:52:45.460Z,5.07
2018-04-02T14:55:13.679Z,3.53
2018-04-02T14:57:41.133Z,3.87
2018-04-02T15:00:08.584Z,4.13
2018-04-02T15:02:36.047Z,4.30
2018-04-02T15:05:03.488Z,3.80
2018-04-02T15:07:30.943Z,4.87
2018-04-02T15:09:58.389Z,3.87
2018-04-02T15:12:26.621Z,4.83
2018-04-02T15:14:54.078Z,3.93
2018-04-02T15:17:21.535Z,3.47
2018-04-02T15:19:48.989Z,3.43
2018-04-02T15:22:16.442Z,4.43
2018-04-02T15:24:44.669Z,4.83
2018-04-02T15:27:12.121Z,4.20
2018-04-02T15:29:40.377Z,4.33
2018-04-02T15:32:08.592Z,3.87
2018-04-02T15:34:36.044Z,3.97
2018-04-02T15:37:03.493Z,3.73
2018-04-02T15:39:30.955Z,3.87
2018-04-02T15:41:58.410Z,3.53
2018-04-02T15:44:25.864Z,3.90
2018-04-02T15:46:53.317Z,4.47
2018-04-02T15:49:20.776Z,4.17
2018-04-02T15:51:48.233Z,3.77
2018-04-02T15:54:15.685Z,4.07
2018-04-02T15:56:43.135Z,3.30
2018-04-02T15:59:11.348Z,5.30
2018-04-02T16:01:38.802Z,4.17
2018-04-02T16:04:06.407Z,4.33
2018-04-02T16:06:34.621Z,4.30
2018-04-02T16:09:02.072Z,4.67
2018-04-02T16:11:29.522Z,3.27
2018-04-02T16:13:56.973Z,3.30
2018-04-02T16:16:24.417Z,5.00
2018-04-02T16:18:52.633Z,2.73
2018-04-02T16:21:20.236Z,3.80
2018-04-02T16:23:47.702Z,3.30
2018-04-02T16:26:15.920Z,2.53
2018-04-02T16:28:43.404Z,3.43
2018-04-02T16:31:11.645Z,2.50
2018-04-02T16:33:39.126Z,2.80
2018-04-02T16:36:06.771Z,3.93
2018-04-02T16:38:34.457Z,3.17
2018-04-02T16:41:02.082Z,4.50
2018-04-02T16:43:30.775Z,3.30
2018-04-02T16:45:58.445Z,4.77
2018-04-02T16:48:26.543Z,4.13
2018-04-02T16:50:54.780Z,5.77
2018-04-02T16:53:22.225Z,4.50
2018-04-02T16:55:49.668Z,3.70
2018-04-02T16:58:17.885Z,4.87
2018-04-02T17:00:45.329Z,5.80
2018-04-02T17:03:12.788Z,5.00
2018-04-02T17:05:40.244Z,3.03
2018-04-02T17:08:07.697Z,3.83
2018-04-02T17:10:35.144Z,2.50
2018-04-02T17:13:02.623Z,4.70
2018-04-02T17:15:30.061Z,2.63
2018-04-02T17:17:57.507Z,3.87
2018-04-02T17:20:24.974Z,3.53
2018-04-02T17:22:52.520Z,3.57
2018-04-02T17:25:19.963Z,3.60
2018-04-02T17:27:47.416Z,2.83
2018-04-02T17:30:15.633Z,2.30
2018-04-02T17:32:43.097Z,3.33
2018-04-02T17:35:10.553Z,2.73
2018-04-02T17:37:39.103Z,5.10
2018-04-02T17:40:06.558Z,3.20
2018-04-02T17:42:34.013Z,2.73
2018-04-02T17:45:01.578Z,3.23
2018-04-02T17:47:29.033Z,3.63
2018-04-02T17:49:56.500Z,4.03
2018-04-02T17:52:23.956Z,4.77
2018-04-02T17:54:51.421Z,3.60
2018-04-02T17:57:18.962Z,6.07
2018-04-02T17:59:46.463Z,2.73
2018-04-02T18:02:14.010Z,4.00
2018-04-02T18:04:41.478Z,5.00
2018-04-02T18:07:08.944Z,8.27
2018-04-02T18:09:36.392Z,7.03
2018-04-02T18:12:03.857Z,7.20
2018-04-02T18:14:31.330Z,7.47
2018-04-02T18:16:59.556Z,6.90
2018-04-02T18:19:27.021Z,6.23
2018-04-02T18:21:55.262Z,5.10
2018-04-02T18:24:22.728Z,10.77
2018-04-02T18:26:50.204Z,8.93
2018-04-02T18:29:17.669Z,10.20
2018-04-02T18:31:45.132Z,11.27
2018-04-02T18:34:12.628Z,8.53
2018-04-02T18:36:40.141Z,10.33
2018-04-02T18:39:07.605Z,11.30
2018-04-02T18:41:35.060Z,9.67
2018-04-02T18:44:02.522Z,9.80
2018-04-02T18:46:29.978Z,7.80
2018-04-02T18:48:57.449Z,8.43
2018-04-02T18:51:24.921Z,7.27
2018-04-02T18:53:53.168Z,7.27
2018-04-02T18:56:20.652Z,12.73
2018-04-02T18:58:48.174Z,7.57
2018-04-02T19:01:15.625Z,5.70
2018-04-02T19:03:43.082Z,7.03
2018-04-02T19:06:10.531Z,13.30
2018-04-02T19:08:37.988Z,12.53
2018-04-02T19:11:05.447Z,11.83
2018-04-02T19:13:32.974Z,15.47
2018-04-02T19:16:00.429Z,17.00
2018-04-02T19:18:27.885Z,12.73
2018-04-02T19:20:55.333Z,9.00
2018-04-02T19:23:22.799Z,6.30
2018-04-02T19:25:50.262Z,6.23
2018-04-02T19:28:17.724Z,5.57
2018-04-02T19:30:45.181Z,6.80
2018-04-02T19:33:12.640Z,9.43
2018-04-02T19:35:40.113Z,8.63
2018-04-02T19:38:07.581Z,8.07
2018-04-02T19:40:35.049Z,14.97
2018-04-02T19:43:02.514Z,20.30
2018-04-02T19:45:29.984Z,15.57
2018-04-02T19:47:58.205Z,13.47
2018-04-02T19:50:25.657Z,13.27
2018-04-02T19:52:53.105Z,13.30
2018-04-02T19:55:20.573Z,14.40
2018-04-02T19:57:48.030Z,17.57
2018-04-02T20:00:15.501Z,13.87
2018-04-02T20:02:43.721Z,21.20
2018-04-02T20:05:11.945Z,15.77
2018-04-02T20:07:39.406Z,15.83
2018-04-02T20:10:06.879Z,20.07
2018-04-02T20:12:34.332Z,15.70
2018-04-02T20:15:01.793Z,20.60
2018-04-02T20:17:29.273Z,21.37
2018-04-02T20:19:57.496Z,16.83
2018-04-02T20:22:24.952Z,16.23
2018-04-02T20:24:52.413Z,13.77
2018-04-02T20:27:19.892Z,19.53
2018-04-02T20:29:47.351Z,11.43
2018-04-02T20:32:14.813Z,12.37
2018-04-02T20:34:42.267Z,8.50
2018-04-02T20:37:09.726Z,5.97
2018-04-02T20:39:37.176Z,7.43
2018-04-02T20:42:04.656Z,7.63
2018-04-02T20:44:32.887Z,10.97
2018-04-02T20:47:00.358Z,14.97
2018-04-02T20:49:27.814Z,14.67
2018-04-02T20:51:56.881Z,6.37
2018-04-02T20:54:24.431Z,4.00
2018-04-02T20:56:51.884Z,3.60
2018-04-02T20:59:19.345Z,3.90
2018-04-02T21:01:46.797Z,3.63
2018-04-02T21:04:14.260Z,3.03
2018-04-02T21:06:41.734Z,5.90
2018-04-02T21:09:09.188Z,7.53
2018-04-02T21:11:36.645Z,8.33
2018-04-02T21:14:04.093Z,7.47
2018-04-02T21:16:31.552Z,4.87
2018-04-02T21:18:59.011Z,7.20
2018-04-02T21:21:26.464Z,3.73
2018-04-02T21:23:53.930Z,6.10
2018-04-02T21:26:21.376Z,6.57
2018-04-02T21:28:48.844Z,4.03
2018-04-02T21:31:16.293Z,2.80
2018-04-02T21:33:43.748Z,4.37
2018-04-02T21:36:11.197Z,3.47
2018-04-02T21:38:38.661Z,3.47
2018-04-02T21:41:06.120Z,3.23
2018-04-02T21:43:33.572Z,4.70
2018-04-02T21:46:01.028Z,3.00
2018-04-02T21:48:28.500Z,3.43
2018-04-02T21:50:55.954Z,4.63
2018-04-02T21:53:23.401Z,2.67
2018-04-02T21:55:50.852Z,4.93
2018-04-02T21:58:18.300Z,3.73
2018-04-02T22:00:45.749Z,2.90
2018-04-02T22:03:13.200Z,2.73
2018-04-02T22:05:40.643Z,3.37
2018-04-02T22:08:09.885Z,5.10
2018-04-02T22:10:37.337Z,3.00
2018-04-02T22:13:04.793Z,3.10
2018-04-02T22:15:32.249Z,4.33
2018-04-02T22:17:59.700Z,3.47
2018-04-02T22:20:27.156Z,4.40
2018-04-02T22:22:54.614Z,2.10
2018-04-02T22:25:22.072Z,5.10
2018-04-02T22:27:49.568Z,2.57
2018-04-02T22:30:16.980Z,4.07
2018-04-02T22:32:44.447Z,4.23
2018-04-02T22:35:11.905Z,2.77
2018-04-02T22:37:39.360Z,3.17
2018-04-02T22:40:06.829Z,2.53
2018-04-02T22:42:34.277Z,3.87
2018-04-02T22:45:01.727Z,2.23
2018-04-02T22:47:29.189Z,2.57
2018-04-02T22:49:56.641Z,2.77
2018-04-02T22:52:24.088Z,2.33
2018-04-02T22:54:51.546Z,2.70
2018-04-02T22:57:18.992Z,2.80
2018-04-02T22:59:46.445Z,2.40
2018-04-02T23:02:13.893Z,2.77
2018-04-02T23:04:41.337Z,3.27
2018-04-02T23:07:08.789Z,3.13
2018-04-02T23:09:36.996Z,2.30
2018-04-02T23:12:04.453Z,3.20
2018-04-02T23:14:31.896Z,3.00
2018-04-02T23:16:59.355Z,2.00
2018-04-02T23:19:26.809Z,2.47
2018-04-02T23:21:54.268Z,2.60
2018-04-02T23:24:21.773Z,3.50
2018-04-02T23:26:49.198Z,2.53
2018-04-02T23:29:16.647Z,2.97
2018-04-02T23:31:44.098Z,1.93
2018-04-02T23:34:11.545Z,2.20
2018-04-02T23:36:38.993Z,2.43
2018-04-02T23:39:06.436Z,1.57
2018-04-02T23:41:34.652Z,2.30
2018-04-02T23:44:02.125Z,1.80
2018-04-02T23:46:29.576Z,2.47
2018-04-02T23:48:57.025Z,2.57
2018-04-02T23:51:24.476Z,2.87
2018-04-02T23:53:51.932Z,2.70
2018-04-02T23:56:19.377Z,2.63
2018-04-02T23:58:46.842Z,3.90
